Time;durP1;ratioP1;P1;durP2;ratioP2;P2;SDS_P1;SDS_P2;PMS_P1;PMS_P2;Temp;Humidity;BMP_temperature;BMP_pressure;BME280_temperature;BME280_humidity;BME280_pressure;Samples;Min_cycle;Max_cycle;Signal;HPM_P1;HPM_P2
2021/04/26 00:00:19;;;;;;;1.4;1.3;;;;;;;6.89;60.53613;938.0365;;;;
2021/04/26 00:02:45;;;;;;;2.3;1.2;;;;;;;6.73;61.42969;938.0182;;;;
2021/04/26 00:05:11;;;;;;;1.1;0.9;;;;;;;6.79;61.61816;937.8883;;;;
2021/04/26 00:07:36;;;;;;;1.1;1;;;;;;;6.85;61.77441;937.9944;;;;
2021/04/26 00:10:03;;;;;;;1.2;1.1;;;;;;;6.86;62.39844;937.9677;;;;
2021/04/26 00:12:28;;;;;;;2.1;1.4;;;;;;;6.67;63.07422;937.9204;;;;
2021/04/26 00:14:53;;;;;;;2.8;1.5;;;;;;;6.65;63.20703;937.8472;;;;
2021/04/26 00:17:26;;;;;;;2.7;1.6;;;;;;;6.6;63.99121;937.7594;;;;
2021/04/26 00:19:53;;;;;;;2.1;1.3;;;;;;;6.56;64.29004;937.8091;;;;
2021/04/26 00:22:19;;;;;;;2.3;1.3;;;;;;;6.6;64.20605;937.7887;;;;
2021/04/26 00:24:45;;;;;;;2.6;1.8;;;;;;;6.61;64.20703;937.7678;;;;
2021/04/26 00:27:10;;;;;;;2.5;1.5;;;;;;;6.42;65.15137;937.7385;;;;
2021/04/26 00:29:36;;;;;;;2.3;1.5;;;;;;;6.3;65.64063;937.7486;;;;
2021/04/26 00:32:09;;;;;;;3.7;1.3;;;;;;;6.3;65.8125;937.7661;;;;
2021/04/26 00:34:34;;;;;;;1.7;1.5;;;;;;;6.26;66.06543;937.6758;;;;
2021/04/26 00:36:59;;;;;;;1.3;1.1;;;;;;;6.31;65.91406;937.628;;;;
2021/04/26 00:39:25;;;;;;;2.7;1.1;;;;;;;6.4;65.74707;937.555;;;;
2021/04/26 00:41:50;;;;;;;1.4;1.2;;;;;;;6.45;65.66504;937.5961;;;;
2021/04/26 00:44:15;;;;;;;1.4;1;;;;;;;6.45;65.4043;937.6356;;;;
2021/04/26 00:46:40;;;;;;;2.5;1.2;;;;;;;6.42;65.50195;937.5828;;;;
2021/04/26 00:49:05;;;;;;;2.5;1.5;;;;;;;6.47;65.44141;937.5926;;;;
2021/04/26 00:51:31;;;;;;;3.3;1.7;;;;;;;6.5;65.2207;937.5815;;;;
2021/04/26 00:53:56;;;;;;;1.5;1.2;;;;;;;6.49;64.58398;937.5496;;;;
2021/04/26 00:56:23;;;;;;;5.1;1.8;;;;;;;6.41;64.63965;937.595;;;;
2021/04/26 00:58:48;;;;;;;2.3;1.5;;;;;;;6.14;65.51465;937.6551;;;;
2021/04/26 01:01:15;;;;;;;2.7;1.4;;;;;;;5.89;66.79883;937.5242;;;;
2021/04/26 01:03:40;;;;;;;1.5;1.3;;;;;;;5.75;67.39746;937.4918;;;;
2021/04/26 01:06:07;;;;;;;3.1;2.1;;;;;;;5.55;68.21191;937.4342;;;;
2021/04/26 01:08:32;;;;;;;10.5;1.4;;;;;;;5.46;68.66211;937.4327;;;;
2021/04/26 01:10:59;;;;;;;2.2;1.3;;;;;;;5.5;68.56445;937.4416;;;;
2021/04/26 01:13:24;;;;;;;1.8;1.1;;;;;;;5.43;68.94922;937.4428;;;;
2021/04/26 01:15:52;;;;;;;2.5;1.4;;;;;;;5.49;68.86816;937.457;;;;
2021/04/26 01:18:17;;;;;;;3.8;1.7;;;;;;;5.46;68.99902;937.4167;;;;
2021/04/26 01:20:44;;;;;;;2.4;1.4;;;;;;;5.53;68.80762;937.4274;;;;
2021/04/26 01:23:09;;;;;;;1.3;1.2;;;;;;;5.6;68.7627;937.423;;;;
2021/04/26 01:25:36;;;;;;;2.6;1.3;;;;;;;5.65;68.45508;937.3614;;;;
2021/04/26 01:28:01;;;;;;;7;1.5;;;;;;;5.68;68.2998;937.3107;;;;
2021/04/26 01:30:28;;;;;;;2.1;1.6;;;;;;;5.73;68.00293;937.3285;;;;
2021/04/26 01:32:53;;;;;;;2.9;1.8;;;;;;;5.82;68.09766;937.3524;;;;
2021/04/26 01:35:20;;;;;;;2.4;1.7;;;;;;;5.77;68.1582;937.2184;;;;
2021/04/26 01:37:46;;;;;;;2.1;1.7;;;;;;;5.79;68.09277;937.1185;;;;
2021/04/26 01:40:11;;;;;;;3.5;1.8;;;;;;;5.69;68.15625;937.1342;;;;
2021/04/26 01:42:36;;;;;;;1.3;1.2;;;;;;;5.75;68.17578;937.0645;;;;
2021/04/26 01:45:01;;;;;;;1.4;1.2;;;;;;;5.83;67.88379;937.0961;;;;
2021/04/26 01:47:27;;;;;;;4.9;1.8;;;;;;;5.87;67.55273;937.165;;;;
2021/04/26 01:49:54;;;;;;;1.5;1.2;;;;;;;5.69;67.95313;937.1292;;;;
2021/04/26 01:52:18;;;;;;;3;1.3;;;;;;;5.59;68.40039;937.1351;;;;
2021/04/26 01:54:44;;;;;;;4.4;1.5;;;;;;;5.56;68.63281;937.1945;;;;
2021/04/26 01:57:10;;;;;;;1.7;1.4;;;;;;;5.53;68.70605;937.1368;;;;
2021/04/26 01:59:35;;;;;;;5.3;1.9;;;;;;;5.5;68.90332;937.1273;;;;
2021/04/26 02:02:00;;;;;;;4.1;1.7;;;;;;;5.39;69.21289;937.1099;;;;
2021/04/26 02:04:29;;;;;;;1.9;1.3;;;;;;;5.48;69.03711;937.0052;;;;
2021/04/26 02:06:54;;;;;;;2;1.6;;;;;;;5.51;68.96289;937.1235;;;;
2021/04/26 02:09:22;;;;;;;2.6;1.6;;;;;;;5.47;70.50098;937.1021;;;;
2021/04/26 02:11:47;;;;;;;2.1;1.6;;;;;;;5.52;69.55078;937.0646;;;;
2021/04/26 02:14:12;;;;;;;2.9;1.7;;;;;;;5.52;68.82715;937.0803;;;;
2021/04/26 02:16:38;;;;;;;1.2;1.1;;;;;;;5.56;68.65527;936.9733;;;;
2021/04/26 02:19:03;;;;;;;2.9;1.4;;;;;;;5.65;68.55566;937.0233;;;;
2021/04/26 02:21:28;;;;;;;7.1;1.3;;;;;;;5.57;68.87109;937.0084;;;;
2021/04/26 02:23:54;;;;;;;2;1.5;;;;;;;5.52;70.00195;936.9612;;;;
2021/04/26 02:26:19;;;;;;;2.7;1.7;;;;;;;5.56;69.81738;936.9156;;;;
2021/04/26 02:28:47;;;;;;;4.5;1.4;;;;;;;5.61;68.83203;936.94;;;;
2021/04/26 02:31:12;;;;;;;2.5;1.7;;;;;;;5.61;68.69629;936.8531;;;;
2021/04/26 02:33:39;;;;;;;2;1.4;;;;;;;5.58;68.70215;936.7817;;;;
2021/04/26 02:36:07;;;;;;;2.3;1.3;;;;;;;5.65;68.07031;936.6861;;;;
2021/04/26 02:38:32;;;;;;;2.4;1.4;;;;;;;5.69;67.99805;936.608;;;;
2021/04/26 02:40:58;;;;;;;3.4;1.4;;;;;;;5.78;67.83008;936.5856;;;;
2021/04/26 02:43:23;;;;;;;2.1;1.2;;;;;;;5.82;67.66797;936.5458;;;;
2021/04/26 02:45:49;;;;;;;1.9;1.3;;;;;;;5.86;67.04297;936.5066;;;;
2021/04/26 02:48:14;;;;;;;1.6;1.1;;;;;;;5.87;66.86328;936.4878;;;;
2021/04/26 02:50:40;;;;;;;1.9;1.5;;;;;;;5.82;66.82129;936.4108;;;;
2021/04/26 02:53:05;;;;;;;2.7;1.6;;;;;;;5.78;66.89355;936.3889;;;;
2021/04/26 02:55:32;;;;;;;3.1;1.2;;;;;;;5.75;67.5791;936.4026;;;;
2021/04/26 02:57:58;;;;;;;1.3;1.2;;;;;;;5.71;67.59473;936.3367;;;;
2021/04/26 03:00:23;;;;;;;3.1;1.7;;;;;;;5.73;67.55078;936.2385;;;;
2021/04/26 03:02:48;;;;;;;3.6;1.7;;;;;;;5.64;67.75293;936.1922;;;;
2021/04/26 03:05:13;;;;;;;4.4;1.3;;;;;;;5.31;69.11133;936.2718;;;;
2021/04/26 03:07:39;;;;;;;2.4;1.4;;;;;;;5.09;70.16797;936.1994;;;;
2021/04/26 03:10:05;;;;;;;1.8;1.3;;;;;;;5.1;70.29395;936.1601;;;;
2021/04/26 03:12:30;;;;;;;4.2;1.6;;;;;;;5.05;70.45508;936.0491;;;;
2021/04/26 03:14:55;;;;;;;3.2;1.7;;;;;;;5.1;70.46289;936.1373;;;;
2021/04/26 03:17:20;;;;;;;3;1.6;;;;;;;5.05;70.48926;936.0823;;;;
2021/04/26 03:19:46;;;;;;;2.1;1.6;;;;;;;4.98;70.82617;935.9871;;;;
2021/04/26 03:22:11;;;;;;;2.2;1.6;;;;;;;4.79;71.52734;936.1103;;;;
2021/04/26 03:24:36;;;;;;;1.8;1.5;;;;;;;4.71;71.97559;936.1058;;;;
2021/04/26 03:27:04;;;;;;;2.2;1.5;;;;;;;4.63;72.41113;936.0781;;;;
2021/04/26 03:29:29;;;;;;;1.6;1.5;;;;;;;4.61;72.56641;936.0832;;;;
2021/04/26 03:31:54;;;;;;;2.2;1.4;;;;;;;4.71;72.33594;936.0142;;;;
2021/04/26 03:34:19;;;;;;;2;1.7;;;;;;;4.6;72.53125;935.9944;;;;
2021/04/26 03:36:45;;;;;;;2.3;1.3;;;;;;;4.61;72.85938;935.9642;;;;
2021/04/26 03:39:11;;;;;;;3.5;1.4;;;;;;;4.71;72.30176;936.041;;;;
2021/04/26 03:41:36;;;;;;;1.6;1.3;;;;;;;4.74;72.03613;936.0348;;;;
2021/04/26 03:44:01;;;;;;;2.9;1.6;;;;;;;4.68;72.23926;935.9993;;;;
2021/04/26 03:46:26;;;;;;;2.4;1.5;;;;;;;4.86;71.96777;936.0131;;;;
2021/04/26 03:48:51;;;;;;;1.8;1.2;;;;;;;4.99;71.24512;936.0111;;;;
2021/04/26 03:51:16;;;;;;;3.4;1.7;;;;;;;5.03;70.9707;936.0747;;;;
2021/04/26 03:53:43;;;;;;;3.7;2.6;;;;;;;5.17;70.82422;936.0997;;;;
2021/04/26 03:56:08;;;;;;;2.2;1.5;;;;;;;5.25;70.62207;936.1272;;;;
2021/04/26 03:58:34;;;;;;;2.4;1.3;;;;;;;5.15;70.3252;936.0991;;;;
2021/04/26 04:02:31;;;;;;;2.9;1.4;;;;;;;5.27;70.03027;936.0292;;;;
2021/04/26 04:04:56;;;;;;;5.7;2.4;;;;;;;5.32;69.95703;935.9894;;;;
2021/04/26 04:07:21;;;;;;;3.2;1.9;;;;;;;5.34;69.83691;935.9363;;;;
2021/04/26 04:09:47;;;;;;;2.3;1.5;;;;;;;5.19;70.19727;936.0293;;;;
2021/04/26 04:12:12;;;;;;;1.8;1.5;;;;;;;5.12;70.625;935.9161;;;;
2021/04/26 04:14:37;;;;;;;2.8;1.7;;;;;;;5.09;70.4043;935.943;;;;
2021/04/26 04:17:02;;;;;;;2.4;1.3;;;;;;;5.23;70.01172;935.9358;;;;
2021/04/26 04:19:29;;;;;;;1.4;1.2;;;;;;;5.28;69.53516;935.8219;;;;
2021/04/26 04:21:54;;;;;;;1.9;1.3;;;;;;;5.29;69.46777;935.8472;;;;
2021/04/26 04:24:20;;;;;;;2.9;1.6;;;;;;;5.42;69.18359;935.8215;;;;
2021/04/26 04:26:46;;;;;;;2.2;1.4;;;;;;;5.52;68.75;935.7743;;;;
2021/04/26 04:29:11;;;;;;;2.2;1.6;;;;;;;5.52;68.76074;935.7798;;;;
2021/04/26 04:31:36;;;;;;;2.1;1.3;;;;;;;5.46;68.875;935.8186;;;;
2021/04/26 04:34:02;;;;;;;2;1.3;;;;;;;5.43;69.32227;935.7745;;;;
2021/04/26 04:36:27;;;;;;;2.2;1.6;;;;;;;5.49;69.24219;935.7816;;;;
2021/04/26 04:38:54;;;;;;;2.1;1.8;;;;;;;5.57;69.29883;935.8474;;;;
2021/04/26 04:41:19;;;;;;;3.2;1.4;;;;;;;5.67;68.64844;935.8247;;;;
2021/04/26 04:43:45;;;;;;;3;1.7;;;;;;;5.65;68.96191;935.7524;;;;
2021/04/26 04:46:10;;;;;;;3.1;1.4;;;;;;;5.74;68.63867;935.7853;;;;
2021/04/26 04:48:37;;;;;;;1.8;1.2;;;;;;;5.82;68.91016;935.8397;;;;
2021/04/26 04:51:02;;;;;;;3.6;1.4;;;;;;;5.9;69.14941;935.7982;;;;
2021/04/26 04:53:29;;;;;;;2.5;1.4;;;;;;;5.98;68.4834;935.7755;;;;
2021/04/26 04:55:55;;;;;;;1.7;1.4;;;;;;;5.95;68.16309;935.733;;;;
2021/04/26 04:58:21;;;;;;;1.8;1.5;;;;;;;5.89;68.51367;935.7866;;;;
2021/04/26 05:00:46;;;;;;;4.4;1.8;;;;;;;5.96;68.75293;935.8692;;;;
2021/04/26 05:03:14;;;;;;;2.6;2;;;;;;;6.1;68.80859;935.8022;;;;
2021/04/26 05:05:39;;;;;;;2.7;2;;;;;;;6.13;69.08398;935.7949;;;;
2021/04/26 05:08:05;;;;;;;3.8;2;;;;;;;6.28;68.67969;935.8103;;;;
2021/04/26 05:10:30;;;;;;;3.7;1.6;;;;;;;6.4;67.72559;935.8041;;;;
2021/04/26 05:12:58;;;;;;;7.1;1.5;;;;;;;6.5;67.53809;935.6863;;;;
2021/04/26 05:15:31;;;;;;;2.6;2;;;;;;;6.56;67.60449;935.7942;;;;
2021/04/26 05:17:56;;;;;;;2.8;1.8;;;;;;;6.69;66.78711;935.7173;;;;
2021/04/26 05:20:21;;;;;;;5.5;1.8;;;;;;;6.78;66.26855;935.7119;;;;
2021/04/26 05:22:48;;;;;;;5.3;1.8;;;;;;;6.79;67.07422;935.6891;;;;
2021/04/26 05:25:14;;;;;;;2.9;1.9;;;;;;;6.86;66.73535;935.7106;;;;
2021/04/26 05:27:41;;;;;;;2.9;1.2;;;;;;;6.95;67.4375;935.6892;;;;
2021/04/26 05:30:06;;;;;;;2.4;1.5;;;;;;;7.12;67.04688;935.7798;;;;
2021/04/26 05:32:31;;;;;;;1.4;1.2;;;;;;;7.22;66.41699;935.7874;;;;
2021/04/26 05:34:59;;;;;;;3.5;1.7;;;;;;;7.4;66.02539;935.7676;;;;
2021/04/26 05:37:24;;;;;;;1.8;1.5;;;;;;;7.52;65.85059;935.7921;;;;
2021/04/26 05:39:50;;;;;;;1.8;1.3;;;;;;;7.45;66.61133;935.752;;;;
2021/04/26 05:42:15;;;;;;;1.8;1.3;;;;;;;7.48;66.33301;935.7346;;;;
2021/04/26 05:44:41;;;;;;;2.7;1.7;;;;;;;7.32;66.52246;935.8098;;;;
2021/04/26 05:47:06;;;;;;;3.3;1.5;;;;;;;7.08;67.17578;935.8638;;;;
2021/04/26 05:49:33;;;;;;;2.3;1.6;;;;;;;7.04;66.23047;935.8314;;;;
2021/04/26 05:51:58;;;;;;;2.4;1.7;;;;;;;6.87;66.90527;935.8271;;;;
2021/04/26 05:54:24;;;;;;;1.8;1.6;;;;;;;6.89;66.09375;935.8448;;;;
2021/04/26 05:56:49;;;;;;;3.1;1.8;;;;;;;7.13;65.25684;935.8504;;;;
2021/04/26 05:59:16;;;;;;;2.9;1.7;;;;;;;7.09;65.24219;935.811;;;;
2021/04/26 06:01:41;;;;;;;3.2;1.8;;;;;;;6.93;64.93359;935.7665;;;;
2021/04/26 06:04:09;;;;;;;2.2;1.5;;;;;;;6.96;64.49609;935.8264;;;;
2021/04/26 06:06:34;;;;;;;3.1;1.5;;;;;;;6.95;64.72168;935.827;;;;
2021/04/26 06:09:01;;;;;;;2.3;1.3;;;;;;;6.95;65.24414;935.8342;;;;
2021/04/26 06:11:26;;;;;;;3.5;1.6;;;;;;;7.07;65.32813;935.8439;;;;
2021/04/26 06:13:54;;;;;;;1.9;1.3;;;;;;;7.36;63.20898;935.8223;;;;
2021/04/26 06:16:21;;;;;;;4.2;1.7;;;;;;;7.61;61.08984;935.7836;;;;
2021/04/26 06:18:47;;;;;;;3.7;2;;;;;;;7.76;60.79297;935.7994;;;;
2021/04/26 06:21:13;;;;;;;1.9;1.5;;;;;;;8.14;59.26953;935.8113;;;;
2021/04/26 06:23:38;;;;;;;3.7;2.2;;;;;;;8.63;57.17578;935.8031;;;;
2021/04/26 06:26:05;;;;;;;2.2;1.2;;;;;;;8.76;57.52441;935.8517;;;;
2021/04/26 06:28:30;;;;;;;2.5;1.3;;;;;;;8.58;56.6582;935.8284;;;;
2021/04/26 06:30:57;;;;;;;1.7;1.1;;;;;;;8.5;56.2959;935.8258;;;;
2021/04/26 06:33:22;;;;;;;2.4;1.6;;;;;;;8.81;56.06348;935.8518;;;;
2021/04/26 06:35:49;;;;;;;3.1;1.8;;;;;;;8.76;56.28418;935.7841;;;;
2021/04/26 06:38:14;;;;;;;3.7;1.7;;;;;;;8.89;55.57324;935.824;;;;
2021/04/26 06:40:41;;;;;;;2.3;1.2;;;;;;;8.75;56.4082;935.842;;;;
2021/04/26 06:43:06;;;;;;;1.4;1.2;;;;;;;8.94;55.11426;935.8279;;;;
2021/04/26 06:45:34;;;;;;;2.2;1.5;;;;;;;8.89;54.95996;935.8931;;;;
2021/04/26 06:47:59;;;;;;;2.2;1.4;;;;;;;8.88;54.62891;935.8741;;;;
2021/04/26 06:50:26;;;;;;;2.7;1.5;;;;;;;9.03;53.90918;935.8617;;;;
2021/04/26 06:52:53;;;;;;;2.3;1.3;;;;;;;8.72;55.89453;935.8987;;;;
2021/04/26 06:55:16;;;;;;;1.8;1.4;;;;;;;9.35;53.10547;935.9441;;;;
2021/04/26 06:57:41;;;;;;;1.1;1;;;;;;;9.58;52.47363;935.813;;;;
2021/04/26 07:00:07;;;;;;;1.3;1;;;;;;;9.63;51.85254;935.693;;;;
2021/04/26 07:02:32;;;;;;;2.5;1.5;;;;;;;9.47;53.07324;935.7356;;;;
2021/04/26 07:04:57;;;;;;;2;1.5;;;;;;;9.4;53.12402;935.7713;;;;
2021/04/26 07:07:25;;;;;;;3;1.4;;;;;;;9.58;52.63281;935.7375;;;;
2021/04/26 07:09:49;;;;;;;2.3;1.4;;;;;;;9.79;52.85254;935.6982;;;;
2021/04/26 07:12:16;;;;;;;2.4;1.8;;;;;;;10.3;51.43066;935.7252;;;;
2021/04/26 07:14:41;;;;;;;3.5;1.3;;;;;;;10.61;49.52637;935.6591;;;;
2021/04/26 07:17:07;;;;;;;6.1;1.5;;;;;;;10.47;51.58789;935.7051;;;;
2021/04/26 07:19:34;;;;;;;2.7;1.6;;;;;;;10.29;52.09082;935.7427;;;;
2021/04/26 07:22:02;;;;;;;2.9;1.5;;;;;;;10.29;52.43457;935.6672;;;;
2021/04/26 07:24:27;;;;;;;1.8;1.3;;;;;;;10.34;51.20801;935.6579;;;;
2021/04/26 07:26:56;;;;;;;2.1;1.4;;;;;;;10.51;51.71777;935.7068;;;;
2021/04/26 07:29:21;;;;;;;1.4;1.1;;;;;;;10.87;49.36133;935.6223;;;;
2021/04/26 07:31:47;;;;;;;2.4;1.3;;;;;;;11.34;48.55859;935.5469;;;;
2021/04/26 07:34:12;;;;;;;5.2;1.3;;;;;;;11.88;46.91211;935.575;;;;
2021/04/26 07:36:38;;;;;;;2;1.4;;;;;;;12.09;46.79785;935.6254;;;;
2021/04/26 07:39:03;;;;;;;3.5;1.2;;;;;;;11.62;48.24609;935.5392;;;;
2021/04/26 07:41:29;;;;;;;3.1;1.3;;;;;;;11.27;48.91602;935.5747;;;;
2021/04/26 07:43:54;;;;;;;1.7;1.4;;;;;;;10.77;51.38379;935.5969;;;;
2021/04/26 07:46:21;;;;;;;2.6;1.5;;;;;;;10.94;48.57031;935.6392;;;;
2021/04/26 07:48:46;;;;;;;2.1;1.3;;;;;;;11.94;47.19238;935.5893;;;;
2021/04/26 07:51:14;;;;;;;1.2;0.9;;;;;;;12.71;44.77539;935.6635;;;;
2021/04/26 07:53:39;;;;;;;1.7;1.4;;;;;;;12.47;45.4043;935.631;;;;
2021/04/26 07:56:04;;;;;;;1.1;0.8;;;;;;;12.4;45.17969;935.6628;;;;
2021/04/26 07:58:29;;;;;;;1.7;1.1;;;;;;;11.96;46.77148;935.6675;;;;
2021/04/26 08:00:57;;;;;;;3;1.1;;;;;;;11.84;47.50293;935.725;;;;
2021/04/26 08:03:21;;;;;;;3.7;1.6;;;;;;;11.62;48.48633;935.7098;;;;
2021/04/26 08:05:48;;;;;;;2.7;1;;;;;;;11.48;48.66504;935.7022;;;;
2021/04/26 08:08:13;;;;;;;2.6;1.6;;;;;;;11.28;50.97656;935.7142;;;;
2021/04/26 08:10:38;;;;;;;3.6;1.2;;;;;;;11.64;48.87695;935.729;;;;
2021/04/26 08:13:03;;;;;;;1.8;1.1;;;;;;;11.85;48.88965;935.7281;;;;
2021/04/26 08:15:29;;;;;;;1.9;1.4;;;;;;;11.92;49.34375;935.7569;;;;
2021/04/26 08:17:54;;;;;;;1.4;1.3;;;;;;;11.65;50.99609;935.7681;;;;
2021/04/26 08:20:19;;;;;;;4.3;1.6;;;;;;;11.85;50.01367;935.7656;;;;
2021/04/26 08:22:44;;;;;;;3.5;1.8;;;;;;;11.87;49.12109;935.7489;;;;
2021/04/26 08:25:10;;;;;;;3.1;1.2;;;;;;;12.02;49.18359;935.8505;;;;
2021/04/26 08:27:36;;;;;;;1.8;1.3;;;;;;;12.52;48.10547;935.8825;;;;
2021/04/26 08:30:01;;;;;;;3.6;1.5;;;;;;;12.42;47.08496;935.9553;;;;
2021/04/26 08:32:26;;;;;;;1.4;1.1;;;;;;;12.65;46.03125;935.8889;;;;
2021/04/26 08:34:52;;;;;;;1.4;1;;;;;;;12.81;45.52051;935.9036;;;;
2021/04/26 08:37:18;;;;;;;1;0.9;;;;;;;13.47;44.4502;935.8311;;;;
2021/04/26 08:39:43;;;;;;;1.3;1.2;;;;;;;13.55;44.02344;935.8873;;;;
2021/04/26 08:42:11;;;;;;;2;1.3;;;;;;;14.11;43.67676;935.8731;;;;
2021/04/26 08:44:36;;;;;;;2;1.2;;;;;;;14.86;42.22949;935.8267;;;;
2021/04/26 08:47:03;;;;;;;1.5;1;;;;;;;14.81;40.81836;935.8381;;;;
2021/04/26 08:49:28;;;;;;;2.4;1.5;;;;;;;15.37;39.99316;935.7922;;;;
2021/04/26 08:51:55;;;;;;;1.5;1.3;;;;;;;15.29;40.83984;935.77;;;;
2021/04/26 08:54:20;;;;;;;2;1.3;;;;;;;15.67;40.41309;935.8148;;;;
2021/04/26 08:56:47;;;;;;;1.6;1.1;;;;;;;15.77;39.625;935.7708;;;;
2021/04/26 08:59:12;;;;;;;2.2;1.1;;;;;;;15.55;40.04395;935.7853;;;;
2021/04/26 09:01:38;;;;;;;1;0.9;;;;;;;16.07;40.13672;935.7942;;;;
2021/04/26 09:04:04;;;;;;;0.7;0.6;;;;;;;17.84;36.41016;935.7516;;;;
2021/04/26 09:06:29;;;;;;;1.7;0.8;;;;;;;17.35;36.20703;935.7223;;;;
2021/04/26 09:08:54;;;;;;;6.9;1.5;;;;;;;18.4;35.23535;935.73;;;;
2021/04/26 09:11:20;;;;;;;1;0.8;;;;;;;18.43;34.12207;935.7658;;;;
2021/04/26 09:13:47;;;;;;;4.8;1;;;;;;;17.87;34.86914;935.688;;;;
2021/04/26 09:16:20;;;;;;;2.6;1.4;;;;;;;18.3;35.2627;935.6744;;;;
2021/04/26 09:18:44;;;;;;;1.3;0.9;;;;;;;18.03;36.06641;935.6177;;;;
2021/04/26 09:21:09;;;;;;;0.9;0.8;;;;;;;19.06;34.89355;935.6699;;;;
2021/04/26 09:23:34;;;;;;;1.7;1.3;;;;;;;19.29;32.52344;935.6421;;;;
2021/04/26 09:25:59;;;;;;;1.3;0.9;;;;;;;18.58;33.23828;935.6235;;;;
2021/04/26 09:28:24;;;;;;;1.8;1;;;;;;;16.8;36.03418;935.6203;;;;
2021/04/26 09:30:50;;;;;;;3.6;1.6;;;;;;;16.56;37.58887;935.6242;;;;
2021/04/26 09:33:15;;;;;;;2.7;1;;;;;;;16.39;38.34961;935.6028;;;;
2021/04/26 09:35:40;;;;;;;2.3;0.9;;;;;;;15.96;39.69922;935.5506;;;;
2021/04/26 09:38:05;;;;;;;5.3;1.3;;;;;;;15.35;39.48242;935.5197;;;;
2021/04/26 09:40:31;;;;;;;3.4;1.1;;;;;;;15.45;38.5918;935.5298;;;;
2021/04/26 09:42:57;;;;;;;1.1;0.9;;;;;;;15.39;38.57422;935.508;;;;
2021/04/26 09:45:22;;;;;;;1.3;1;;;;;;;16;36.95117;935.4529;;;;
2021/04/26 09:47:47;;;;;;;0.9;0.8;;;;;;;16.39;36.70605;935.4581;;;;
2021/04/26 09:50:12;;;;;;;2.6;1.1;;;;;;;15.92;37.03809;935.3376;;;;
2021/04/26 09:52:37;;;;;;;1.1;1;;;;;;;15.29;39.01465;935.3425;;;;
2021/04/26 09:55:02;;;;;;;1.8;1.1;;;;;;;14.91;40.52734;935.3747;;;;
2021/04/26 09:57:27;;;;;;;2.5;0.9;;;;;;;14.86;42.78223;935.3561;;;;
2021/04/26 09:59:52;;;;;;;1;0.9;;;;;;;15.44;40.4375;935.3736;;;;
2021/04/26 10:02:20;;;;;;;2.5;1.5;;;;;;;15.17;41.32422;935.3301;;;;
2021/04/26 10:04:45;;;;;;;2.3;1;;;;;;;15.53;40.64258;935.2598;;;;
2021/04/26 10:07:11;;;;;;;3.8;1.3;;;;;;;15.98;39.84082;935.2747;;;;
2021/04/26 10:09:37;;;;;;;2.9;1.5;;;;;;;16.03;39.63672;935.2188;;;;
2021/04/26 10:12:03;;;;;;;1.1;0.8;;;;;;;16.72;38.71484;935.1588;;;;
2021/04/26 10:14:28;;;;;;;1;0.9;;;;;;;17.58;36.86426;935.1799;;;;
2021/04/26 10:16:56;;;;;;;2.9;0.9;;;;;;;17.88;36.18066;935.0804;;;;
2021/04/26 10:19:21;;;;;;;3.9;1.9;;;;;;;17.84;37.22266;935.0952;;;;
2021/04/26 10:21:46;;;;;;;7.7;1.8;;;;;;;18.33;36.27637;935.0731;;;;
2021/04/26 10:24:11;;;;;;;1.4;1.2;;;;;;;19;34.58594;935.0273;;;;
2021/04/26 10:26:36;;;;;;;2.4;1;;;;;;;18.35;36.96387;934.9742;;;;
2021/04/26 10:29:03;;;;;;;2.2;0.8;;;;;;;19.06;34.69531;934.9557;;;;
2021/04/26 10:31:28;;;;;;;1.8;1.1;;;;;;;19.35;33.89063;934.7813;;;;
2021/04/26 10:33:54;;;;;;;2;1.2;;;;;;;19.32;34.26074;934.842;;;;
2021/04/26 10:36:19;;;;;;;1.8;1.3;;;;;;;18.15;36.04004;934.834;;;;
2021/04/26 10:38:48;;;;;;;1.4;1;;;;;;;17.34;37.74902;934.7654;;;;
2021/04/26 10:41:10;;;;;;;1.7;1;;;;;;;17.27;37.60449;934.734;;;;
2021/04/26 10:43:35;;;;;;;1.8;1.3;;;;;;;17.29;38.19629;934.7601;;;;
2021/04/26 10:45:59;;;;;;;1.4;0.9;;;;;;;17.46;38.25781;934.7123;;;;
2021/04/26 10:48:25;;;;;;;6.3;1.6;;;;;;;17.72;37.18945;934.6619;;;;
2021/04/26 10:50:50;;;;;;;1.5;1;;;;;;;16.81;38.16699;934.639;;;;
2021/04/26 10:53:16;;;;;;;4.4;1.3;;;;;;;16.74;39.41211;934.5818;;;;
2021/04/26 10:55:41;;;;;;;5.8;1.2;;;;;;;17.11;40.33691;934.5345;;;;
2021/04/26 10:58:06;;;;;;;1.5;1.1;;;;;;;17.18;38.25684;934.45;;;;
2021/04/26 11:00:33;;;;;;;1.2;1;;;;;;;17.41;37.40723;934.5136;;;;
2021/04/26 11:02:58;;;;;;;1.9;1.4;;;;;;;17.54;37.5459;934.4078;;;;
2021/04/26 11:05:23;;;;;;;5.9;1.5;;;;;;;17.78;37.70508;934.3761;;;;
2021/04/26 11:07:53;;;;;;;3.7;1.2;;;;;;;18.24;35.80371;934.3178;;;;
2021/04/26 11:10:16;;;;;;;2.3;1.8;;;;;;;18.6;36.12402;934.3505;;;;
2021/04/26 11:12:44;;;;;;;2;1.4;;;;;;;18.8;35.88379;934.2598;;;;
2021/04/26 11:15:09;;;;;;;1.4;1.2;;;;;;;19.38;34.7666;934.2102;;;;
2021/04/26 11:17:34;;;;;;;1.7;1.2;;;;;;;19.14;34.45703;934.1923;;;;
2021/04/26 11:19:59;;;;;;;0.7;0.7;;;;;;;19.01;34.9707;934.1169;;;;
2021/04/26 11:22:24;;;;;;;1.2;0.8;;;;;;;19.41;35.36328;934.2012;;;;
2021/04/26 11:24:54;;;;;;;1.3;0.9;;;;;;;19.12;33.58203;934.118;;;;
2021/04/26 11:27:19;;;;;;;1.2;1.1;;;;;;;19.51;32.67871;934.0556;;;;
2021/04/26 11:29:45;;;;;;;3;0.8;;;;;;;19.23;34.59082;934.0366;;;;
2021/04/26 11:32:10;;;;;;;1.9;1.4;;;;;;;19.34;32.71289;934.1406;;;;
2021/04/26 11:34:35;;;;;;;1.3;1.1;;;;;;;19.24;36.24707;934.0345;;;;
2021/04/26 11:37:01;;;;;;;1.3;1;;;;;;;20.14;32.1416;934.0708;;;;
2021/04/26 11:39:26;;;;;;;3.8;1.3;;;;;;;19.99;33.16895;933.8703;;;;
2021/04/26 11:41:52;;;;;;;1.3;1.1;;;;;;;19.72;32.94043;933.9394;;;;
2021/04/26 11:44:17;;;;;;;2;1.4;;;;;;;20.31;30.89355;933.9988;;;;
2021/04/26 11:46:43;;;;;;;2.3;0.8;;;;;;;20.92;30.49219;933.8834;;;;
2021/04/26 11:49:08;;;;;;;5.6;1.2;;;;;;;21.14;30.97559;933.9261;;;;
2021/04/26 11:51:34;;;;;;;1.6;1.1;;;;;;;20.41;32.62891;933.9139;;;;
2021/04/26 11:53:59;;;;;;;1;0.9;;;;;;;20.07;32.51074;933.8766;;;;
2021/04/26 11:56:24;;;;;;;13.1;3.9;;;;;;;20.4;32.1377;933.8333;;;;
2021/04/26 11:58:49;;;;;;;1.6;1.4;;;;;;;20.51;33.16211;933.7684;;;;
2021/04/26 12:01:16;;;;;;;2.2;1.4;;;;;;;20.1;34.18164;933.7544;;;;
2021/04/26 12:03:40;;;;;;;0.8;0.8;;;;;;;20.36;32.67188;933.7125;;;;
2021/04/26 12:06:07;;;;;;;1.6;1.2;;;;;;;20.1;34.36816;933.6518;;;;
2021/04/26 12:08:32;;;;;;;2.1;1.2;;;;;;;20.2;31.97168;933.6021;;;;
2021/04/26 12:10:57;;;;;;;2.4;1.4;;;;;;;19.44;33.9209;933.6556;;;;
2021/04/26 12:13:23;;;;;;;2.1;1.1;;;;;;;19.72;33.14941;933.6607;;;;
2021/04/26 12:15:51;;;;;;;2.2;1.4;;;;;;;19.31;33.32813;933.5527;;;;
2021/04/26 12:18:14;;;;;;;1.7;1;;;;;;;18.78;34.90527;933.5514;;;;
2021/04/26 12:20:44;;;;;;;1.4;1;;;;;;;18.17;35.65918;933.5764;;;;
2021/04/26 12:23:11;;;;;;;2.4;1.5;;;;;;;18.74;33.97168;933.5258;;;;
2021/04/26 12:25:37;;;;;;;2;1.3;;;;;;;19.13;33.15137;933.4459;;;;
2021/04/26 12:28:05;;;;;;;2;1.2;;;;;;;19;32.83984;933.5392;;;;
2021/04/26 12:30:31;;;;;;;1.1;0.9;;;;;;;18.86;33.91113;933.5097;;;;
2021/04/26 12:32:58;;;;;;;2.1;1.3;;;;;;;18.24;34.82813;933.4819;;;;
2021/04/26 12:35:26;;;;;;;1.5;0.9;;;;;;;17.91;35.83496;933.4122;;;;
2021/04/26 12:37:50;;;;;;;1.6;1.4;;;;;;;17.77;34.97656;933.3947;;;;
2021/04/26 12:40:15;;;;;;;3.3;1.7;;;;;;;17.5;35.88379;933.3777;;;;
2021/04/26 12:42:42;;;;;;;8.9;1.3;;;;;;;17.82;35.29395;933.425;;;;
2021/04/26 12:45:07;;;;;;;3.4;1.6;;;;;;;17.6;36.99414;933.3798;;;;
2021/04/26 12:47:32;;;;;;;2;0.9;;;;;;;17.41;38.12598;933.2469;;;;
2021/04/26 12:49:57;;;;;;;5.5;1.5;;;;;;;17.32;36.69238;933.3084;;;;
2021/04/26 12:52:22;;;;;;;1.4;1.1;;;;;;;17.55;36.84961;933.2332;;;;
2021/04/26 12:54:47;;;;;;;2.7;1.4;;;;;;;17.96;34.91113;933.2466;;;;
2021/04/26 12:57:13;;;;;;;0.7;0.7;;;;;;;17.75;37.65625;933.1931;;;;
2021/04/26 12:59:41;;;;;;;2;1.5;;;;;;;17.68;35.92188;933.1835;;;;
2021/04/26 13:02:06;;;;;;;2.6;1.4;;;;;;;17.82;36.28125;933.1568;;;;
2021/04/26 13:04:33;;;;;;;2.4;1.2;;;;;;;17.59;37.15527;933.1361;;;;
2021/04/26 13:06:58;;;;;;;3.7;1.8;;;;;;;17.47;35.92676;933.1344;;;;
2021/04/26 13:09:25;;;;;;;2;1.1;;;;;;;17.34;36.69336;933.0753;;;;
2021/04/26 13:11:51;;;;;;;1.4;1.2;;;;;;;17.51;34.88672;932.9756;;;;
2021/04/26 13:14:16;;;;;;;2.8;1.5;;;;;;;17.71;35.28418;932.955;;;;
2021/04/26 13:16:43;;;;;;;2.3;1.5;;;;;;;17.2;37.43555;932.9483;;;;
2021/04/26 13:19:08;;;;;;;2;1.1;;;;;;;17.02;36.16895;932.8705;;;;
2021/04/26 13:21:34;;;;;;;1.6;1.1;;;;;;;17.16;35.68164;932.8686;;;;
2021/04/26 13:23:59;;;;;;;3.8;1.1;;;;;;;17.21;37.51758;932.7798;;;;
2021/04/26 13:26:27;;;;;;;3.2;1.6;;;;;;;17.09;38.93359;932.7803;;;;
2021/04/26 13:28:52;;;;;;;2.7;1.2;;;;;;;17.26;36.02637;932.7523;;;;
2021/04/26 13:31:17;;;;;;;2.4;1.5;;;;;;;17.42;35.22656;932.7244;;;;
2021/04/26 13:33:42;;;;;;;4.2;1.4;;;;;;;17.62;36.03125;932.6237;;;;
2021/04/26 13:36:08;;;;;;;1.8;1.4;;;;;;;17.18;36.50586;932.6744;;;;
2021/04/26 13:38:33;;;;;;;3.2;0.8;;;;;;;17.32;35.71777;932.6888;;;;
2021/04/26 13:40:58;;;;;;;3.4;1.4;;;;;;;16.91;36.66797;932.6108;;;;
2021/04/26 13:43:23;;;;;;;1.8;1.1;;;;;;;17.06;35.96289;932.6145;;;;
2021/04/26 13:45:48;;;;;;;1.7;0.9;;;;;;;17.11;36.28027;932.5416;;;;
2021/04/26 13:48:14;;;;;;;0.8;0.8;;;;;;;17.07;37.35449;932.5339;;;;
2021/04/26 13:50:39;;;;;;;1;0.9;;;;;;;17.05;37.27246;932.4788;;;;
2021/04/26 13:53:06;;;;;;;0.9;0.8;;;;;;;16.69;38.79297;932.4756;;;;
2021/04/26 13:55:31;;;;;;;10.9;1.7;;;;;;;16.79;37.28516;932.5208;;;;
2021/04/26 13:57:57;;;;;;;7;1.1;;;;;;;16.91;39.3916;932.3044;;;;
2021/04/26 14:00:22;;;;;;;1.2;1.1;;;;;;;16.58;37.54492;932.3152;;;;
2021/04/26 14:02:48;;;;;;;1.6;1.3;;;;;;;16.36;38.33594;932.3544;;;;
2021/04/26 14:05:14;;;;;;;1.6;1;;;;;;;16.57;36.68652;932.3549;;;;
2021/04/26 14:07:39;;;;;;;1.4;0.9;;;;;;;16.43;37.81055;932.1635;;;;
2021/04/26 14:10:05;;;;;;;3.3;1.3;;;;;;;16.39;39.78418;932.2841;;;;
2021/04/26 14:12:31;;;;;;;1.7;1.3;;;;;;;16.55;40.03125;932.2467;;;;
2021/04/26 14:14:56;;;;;;;4.4;1.2;;;;;;;16.69;37.18359;932.1983;;;;
2021/04/26 14:17:21;;;;;;;9.1;2;;;;;;;16.83;37.79785;932.2419;;;;
2021/04/26 14:19:47;;;;;;;6.6;1.9;;;;;;;16.65;38.38379;932.1331;;;;
2021/04/26 14:22:13;;;;;;;1.9;1.3;;;;;;;16.36;39.29688;932.185;;;;